sensor_id;sensor_type;location;lat;lon;timestamp;P1;durP1;ratioP1;P2;durP2;ratioP2
18793;SDS011;29610;49.022;12.114;2023-10-13T00:02:04;26.20;;;13.57;;
18793;SDS011;29610;49.022;12.114;2023-10-13T00:04:35;29.63;;;14.47;;
18793;SDS011;29610;49.022;12.114;2023-10-13T00:07:03;29.70;;;13.10;;
18793;SDS011;29610;49.022;12.114;2023-10-13T00:09:35;23.10;;;13.20;;
18793;SDS011;29610;49.022;12.114;2023-10-13T00:12:04;25.40;;;13.30;;
18793;SDS011;29610;49.022;12.114;2023-10-13T00:14:35;25.10;;;13.70;;
18793;SDS011;29610;49.022;12.114;2023-10-13T00:17:05;31.43;;;13.60;;
18793;SDS011;29610;49.022;12.114;2023-10-13T00:19:38;23.60;;;14.07;;
18793;SDS011;29610;49.022;12.114;2023-10-13T00:22:12;24.67;;;13.40;;
18793;SDS011;29610;49.022;12.114;2023-10-13T00:24:43;33.13;;;13.70;;
18793;SDS011;29610;49.022;12.114;2023-10-13T00:27:13;32.33;;;15.07;;
18793;SDS011;29610;49.022;12.114;2023-10-13T00:29:56;28.97;;;14.60;;
18793;SDS011;29610;49.022;12.114;2023-10-13T00:32:49;30.93;;;14.30;;
18793;SDS011;29610;49.022;12.114;2023-10-13T00:35:23;27.73;;;13.87;;
18793;SDS011;29610;49.022;12.114;2023-10-13T00:37:54;25.13;;;14.83;;
18793;SDS011;29610;49.022;12.114;2023-10-13T00:40:24;24.03;;;12.63;;
18793;SDS011;29610;49.022;12.114;2023-10-13T00:43:12;27.03;;;14.53;;
18793;SDS011;29610;49.022;12.114;2023-10-13T00:45:59;27.83;;;15.07;;
18793;SDS011;29610;49.022;12.114;2023-10-13T00:48:40;24.47;;;13.70;;
18793;SDS011;29610;49.022;12.114;2023-10-13T00:51:19;25.63;;;13.47;;
18793;SDS011;29610;49.022;12.114;2023-10-13T00:54:02;29.17;;;13.97;;
18793;SDS011;29610;49.022;12.114;2023-10-13T00:56:37;26.23;;;12.60;;
18793;SDS011;29610;49.022;12.114;2023-10-13T00:59:13;29.97;;;14.30;;
18793;SDS011;29610;49.022;12.114;2023-10-13T01:01:41;34.90;;;16.10;;
18793;SDS011;29610;49.022;12.114;2023-10-13T01:04:10;31.30;;;15.47;;
18793;SDS011;29610;49.022;12.114;2023-10-13T01:06:41;31.97;;;15.07;;
18793;SDS011;29610;49.022;12.114;2023-10-13T01:09:09;35.50;;;16.57;;
18793;SDS011;29610;49.022;12.114;2023-10-13T01:11:39;36.27;;;15.80;;
18793;SDS011;29610;49.022;12.114;2023-10-13T01:14:10;29.00;;;16.33;;
18793;SDS011;29610;49.022;12.114;2023-10-13T01:16:38;29.80;;;15.27;;
18793;SDS011;29610;49.022;12.114;2023-10-13T01:19:10;29.63;;;13.50;;
18793;SDS011;29610;49.022;12.114;2023-10-13T01:21:39;30.43;;;13.47;;
18793;SDS011;29610;49.022;12.114;2023-10-13T01:24:10;37.00;;;16.83;;
18793;SDS011;29610;49.022;12.114;2023-10-13T01:26:42;36.23;;;16.37;;
18793;SDS011;29610;49.022;12.114;2023-10-13T01:29:10;36.47;;;17.63;;
18793;SDS011;29610;49.022;12.114;2023-10-13T01:31:40;25.50;;;14.17;;
18793;SDS011;29610;49.022;12.114;2023-10-13T01:34:13;36.37;;;15.77;;
18793;SDS011;29610;49.022;12.114;2023-10-13T01:36:49;32.43;;;16.47;;
18793;SDS011;29610;49.022;12.114;2023-10-13T01:39:19;27.67;;;16.23;;
18793;SDS011;29610;49.022;12.114;2023-10-13T01:41:53;32.03;;;15.43;;
18793;SDS011;29610;49.022;12.114;2023-10-13T01:44:23;32.07;;;17.23;;
18793;SDS011;29610;49.022;12.114;2023-10-13T01:46:53;43.47;;;20.27;;
18793;SDS011;29610;49.022;12.114;2023-10-13T01:49:21;36.30;;;19.33;;
18793;SDS011;29610;49.022;12.114;2023-10-13T01:51:50;31.50;;;18.40;;
18793;SDS011;29610;49.022;12.114;2023-10-13T01:54:17;38.77;;;15.80;;
18793;SDS011;29610;49.022;12.114;2023-10-13T01:56:47;34.10;;;18.63;;
18793;SDS011;29610;49.022;12.114;2023-10-13T01:59:16;33.53;;;17.40;;
18793;SDS011;29610;49.022;12.114;2023-10-13T02:01:44;35.03;;;17.50;;
18793;SDS011;29610;49.022;12.114;2023-10-13T02:04:13;33.43;;;17.60;;
18793;SDS011;29610;49.022;12.114;2023-10-13T02:06:41;34.90;;;18.10;;
18793;SDS011;29610;49.022;12.114;2023-10-13T02:09:09;34.00;;;18.03;;
18793;SDS011;29610;49.022;12.114;2023-10-13T02:11:42;38.80;;;16.60;;
18793;SDS011;29610;49.022;12.114;2023-10-13T02:14:12;32.57;;;18.43;;
18793;SDS011;29610;49.022;12.114;2023-10-13T02:16:43;32.00;;;16.07;;
18793;SDS011;29610;49.022;12.114;2023-10-13T02:19:16;33.37;;;17.13;;
18793;SDS011;29610;49.022;12.114;2023-10-13T02:21:46;34.63;;;18.83;;
18793;SDS011;29610;49.022;12.114;2023-10-13T02:24:24;37.57;;;17.47;;
18793;SDS011;29610;49.022;12.114;2023-10-13T02:26:57;29.43;;;15.53;;
18793;SDS011;29610;49.022;12.114;2023-10-13T02:29:30;35.70;;;17.53;;
18793;SDS011;29610;49.022;12.114;2023-10-13T02:31:57;33.20;;;16.27;;
18793;SDS011;29610;49.022;12.114;2023-10-13T02:34:30;36.57;;;17.73;;
18793;SDS011;29610;49.022;12.114;2023-10-13T02:36:58;29.50;;;15.47;;
18793;SDS011;29610;49.022;12.114;2023-10-13T02:39:26;35.53;;;17.30;;
18793;SDS011;29610;49.022;12.114;2023-10-13T02:41:54;46.03;;;17.63;;
18793;SDS011;29610;49.022;12.114;2023-10-13T02:44:24;35.87;;;17.43;;
18793;SDS011;29610;49.022;12.114;2023-10-13T02:46:53;32.70;;;17.03;;
18793;SDS011;29610;49.022;12.114;2023-10-13T02:49:23;35.40;;;18.40;;
18793;SDS011;29610;49.022;12.114;2023-10-13T02:51:53;36.53;;;17.60;;
18793;SDS011;29610;49.022;12.114;2023-10-13T02:54:22;43.27;;;19.23;;
18793;SDS011;29610;49.022;12.114;2023-10-13T02:56:53;33.43;;;17.43;;
18793;SDS011;29610;49.022;12.114;2023-10-13T02:59:25;38.47;;;18.90;;
18793;SDS011;29610;49.022;12.114;2023-10-13T03:02:01;35.70;;;18.37;;
18793;SDS011;29610;49.022;12.114;2023-10-13T03:04:33;34.40;;;18.10;;
18793;SDS011;29610;49.022;12.114;2023-10-13T03:07:01;32.07;;;17.00;;
18793;SDS011;29610;49.022;12.114;2023-10-13T03:09:30;38.83;;;18.10;;
18793;SDS011;29610;49.022;12.114;2023-10-13T03:12:04;38.13;;;18.40;;
18793;SDS011;29610;49.022;12.114;2023-10-13T03:14:35;46.27;;;20.17;;
18793;SDS011;29610;49.022;12.114;2023-10-13T03:17:03;39.17;;;20.43;;
18793;SDS011;29610;49.022;12.114;2023-10-13T03:19:32;33.07;;;16.93;;
18793;SDS011;29610;49.022;12.114;2023-10-13T03:22:05;37.63;;;17.67;;
18793;SDS011;29610;49.022;12.114;2023-10-13T03:24:39;42.30;;;18.80;;
18793;SDS011;29610;49.022;12.114;2023-10-13T03:27:11;33.80;;;17.50;;
18793;SDS011;29610;49.022;12.114;2023-10-13T03:29:45;41.47;;;18.77;;
18793;SDS011;29610;49.022;12.114;2023-10-13T03:32:13;34.20;;;17.70;;
18793;SDS011;29610;49.022;12.114;2023-10-13T03:34:43;32.23;;;15.80;;
18793;SDS011;29610;49.022;12.114;2023-10-13T03:37:33;35.97;;;17.57;;
18793;SDS011;29610;49.022;12.114;2023-10-13T03:40:05;37.90;;;18.33;;
18793;SDS011;29610;49.022;12.114;2023-10-13T03:42:57;33.70;;;16.60;;
18793;SDS011;29610;49.022;12.114;2023-10-13T03:45:32;36.90;;;15.80;;
18793;SDS011;29610;49.022;12.114;2023-10-13T03:48:06;36.17;;;18.30;;
18793;SDS011;29610;49.022;12.114;2023-10-13T03:50:36;32.63;;;17.60;;
18793;SDS011;29610;49.022;12.114;2023-10-13T03:53:12;37.70;;;16.27;;
18793;SDS011;29610;49.022;12.114;2023-10-13T03:55:41;33.00;;;16.13;;
18793;SDS011;29610;49.022;12.114;2023-10-13T03:58:14;31.33;;;17.37;;
18793;SDS011;29610;49.022;12.114;2023-10-13T04:00:45;35.70;;;17.97;;
18793;SDS011;29610;49.022;12.114;2023-10-13T04:03:14;34.30;;;19.30;;
18793;SDS011;29610;49.022;12.114;2023-10-13T04:05:45;42.17;;;21.80;;
18793;SDS011;29610;49.022;12.114;2023-10-13T04:08:28;41.60;;;21.03;;
18793;SDS011;29610;49.022;12.114;2023-10-13T04:11:10;41.80;;;21.03;;
18793;SDS011;29610;49.022;12.114;2023-10-13T04:13:56;44.47;;;20.80;;
18793;SDS011;29610;49.022;12.114;2023-10-13T04:16:43;40.00;;;20.17;;
18793;SDS011;29610;49.022;12.114;2023-10-13T04:19:19;36.77;;;18.57;;
18793;SDS011;29610;49.022;12.114;2023-10-13T04:21:50;35.07;;;18.33;;
18793;SDS011;29610;49.022;12.114;2023-10-13T04:24:25;34.87;;;17.37;;
18793;SDS011;29610;49.022;12.114;2023-10-13T04:27:09;35.60;;;16.43;;
18793;SDS011;29610;49.022;12.114;2023-10-13T04:29:56;46.83;;;18.23;;
18793;SDS011;29610;49.022;12.114;2023-10-13T04:32:38;34.27;;;16.70;;
18793;SDS011;29610;49.022;12.114;2023-10-13T04:35:12;42.73;;;19.10;;
18793;SDS011;29610;49.022;12.114;2023-10-13T04:37:45;35.40;;;18.03;;
18793;SDS011;29610;49.022;12.114;2023-10-13T04:40:20;37.27;;;17.87;;
18793;SDS011;29610;49.022;12.114;2023-10-13T04:42:52;37.23;;;18.47;;
18793;SDS011;29610;49.022;12.114;2023-10-13T04:45:24;34.70;;;17.83;;
18793;SDS011;29610;49.022;12.114;2023-10-13T04:48:06;35.07;;;16.93;;
18793;SDS011;29610;49.022;12.114;2023-10-13T04:50:44;35.33;;;17.00;;
18793;SDS011;29610;49.022;12.114;2023-10-13T04:53:17;33.20;;;17.57;;
18793;SDS011;29610;49.022;12.114;2023-10-13T04:55:56;32.83;;;15.87;;
18793;SDS011;29610;49.022;12.114;2023-10-13T04:58:54;33.33;;;16.17;;
18793;SDS011;29610;49.022;12.114;2023-10-13T05:01:44;36.07;;;18.20;;
18793;SDS011;29610;49.022;12.114;2023-10-13T05:04:32;45.73;;;19.50;;
18793;SDS011;29610;49.022;12.114;2023-10-13T05:07:26;32.90;;;16.90;;
18793;SDS011;29610;49.022;12.114;2023-10-13T05:10:12;39.77;;;18.00;;
18793;SDS011;29610;49.022;12.114;2023-10-13T05:12:58;34.30;;;16.93;;
18793;SDS011;29610;49.022;12.114;2023-10-13T05:15:44;34.50;;;17.13;;
18793;SDS011;29610;49.022;12.114;2023-10-13T05:18:33;38.60;;;17.60;;
18793;SDS011;29610;49.022;12.114;2023-10-13T05:21:20;36.50;;;18.50;;
18793;SDS011;29610;49.022;12.114;2023-10-13T05:24:07;30.93;;;17.33;;
18793;SDS011;29610;49.022;12.114;2023-10-13T05:26:53;30.80;;;16.43;;
18793;SDS011;29610;49.022;12.114;2023-10-13T05:29:45;38.47;;;18.43;;
18793;SDS011;29610;49.022;12.114;2023-10-13T05:32:33;37.10;;;18.10;;
18793;SDS011;29610;49.022;12.114;2023-10-13T05:35:19;30.03;;;15.73;;
18793;SDS011;29610;49.022;12.114;2023-10-13T05:38:07;42.60;;;19.83;;
18793;SDS011;29610;49.022;12.114;2023-10-13T05:40:53;35.90;;;17.87;;
18793;SDS011;29610;49.022;12.114;2023-10-13T05:43:45;44.73;;;18.40;;
18793;SDS011;29610;49.022;12.114;2023-10-13T05:46:34;37.77;;;19.80;;
18793;SDS011;29610;49.022;12.114;2023-10-13T05:49:16;41.00;;;18.90;;
18793;SDS011;29610;49.022;12.114;2023-10-13T05:52:01;42.27;;;20.47;;
18793;SDS011;29610;49.022;12.114;2023-10-13T05:54:47;42.07;;;21.63;;
18793;SDS011;29610;49.022;12.114;2023-10-13T05:57:32;44.07;;;19.60;;
18793;SDS011;29610;49.022;12.114;2023-10-13T06:00:18;34.40;;;18.27;;
18793;SDS011;29610;49.022;12.114;2023-10-13T06:03:04;36.77;;;20.20;;
18793;SDS011;29610;49.022;12.114;2023-10-13T06:05:50;38.17;;;18.90;;
18793;SDS011;29610;49.022;12.114;2023-10-13T06:08:36;58.83;;;21.93;;
18793;SDS011;29610;49.022;12.114;2023-10-13T06:11:29;43.37;;;20.40;;
18793;SDS011;29610;49.022;12.114;2023-10-13T06:14:15;38.40;;;20.43;;
18793;SDS011;29610;49.022;12.114;2023-10-13T06:17:01;37.87;;;19.90;;
18793;SDS011;29610;49.022;12.114;2023-10-13T06:19:47;36.83;;;19.20;;
18793;SDS011;29610;49.022;12.114;2023-10-13T06:22:33;41.37;;;19.50;;
18793;SDS011;29610;49.022;12.114;2023-10-13T06:25:19;44.70;;;21.47;;
18793;SDS011;29610;49.022;12.114;2023-10-13T06:28:11;41.50;;;20.90;;
18793;SDS011;29610;49.022;12.114;2023-10-13T06:30:57;33.10;;;19.93;;
18793;SDS011;29610;49.022;12.114;2023-10-13T06:33:28;41.83;;;19.77;;
18793;SDS011;29610;49.022;12.114;2023-10-13T06:36:00;41.17;;;19.83;;
18793;SDS011;29610;49.022;12.114;2023-10-13T06:38:29;53.80;;;19.80;;
18793;SDS011;29610;49.022;12.114;2023-10-13T06:41:02;37.00;;;20.37;;
18793;SDS011;29610;49.022;12.114;2023-10-13T06:43:33;50.00;;;19.73;;
18793;SDS011;29610;49.022;12.114;2023-10-13T06:46:06;40.50;;;21.30;;
18793;SDS011;29610;49.022;12.114;2023-10-13T06:48:41;41.17;;;20.90;;
18793;SDS011;29610;49.022;12.114;2023-10-13T06:51:10;41.20;;;21.00;;
18793;SDS011;29610;49.022;12.114;2023-10-13T06:53:44;51.10;;;21.03;;
18793;SDS011;29610;49.022;12.114;2023-10-13T06:56:14;55.93;;;22.03;;
18793;SDS011;29610;49.022;12.114;2023-10-13T06:58:55;47.70;;;21.93;;
18793;SDS011;29610;49.022;12.114;2023-10-13T07:01:28;50.23;;;22.03;;
18793;SDS011;29610;49.022;12.114;2023-10-13T07:04:06;39.90;;;21.37;;
18793;SDS011;29610;49.022;12.114;2023-10-13T07:06:40;38.63;;;18.87;;
18793;SDS011;29610;49.022;12.114;2023-10-13T07:09:14;35.63;;;20.97;;
18793;SDS011;29610;49.022;12.114;2023-10-13T07:12:06;43.33;;;20.87;;
18793;SDS011;29610;49.022;12.114;2023-10-13T07:14:47;37.10;;;21.27;;
18793;SDS011;29610;49.022;12.114;2023-10-13T07:17:19;35.63;;;19.30;;
18793;SDS011;29610;49.022;12.114;2023-10-13T07:19:54;35.60;;;21.27;;
18793;SDS011;29610;49.022;12.114;2023-10-13T07:22:32;39.83;;;20.50;;
18793;SDS011;29610;49.022;12.114;2023-10-13T07:25:06;45.53;;;21.83;;
18793;SDS011;29610;49.022;12.114;2023-10-13T07:27:35;40.83;;;20.20;;
18793;SDS011;29610;49.022;12.114;2023-10-13T07:30:06;41.53;;;20.60;;
18793;SDS011;29610;49.022;12.114;2023-10-13T07:32:41;35.60;;;19.87;;
18793;SDS011;29610;49.022;12.114;2023-10-13T07:35:14;39.63;;;21.03;;
18793;SDS011;29610;49.022;12.114;2023-10-13T07:37:46;39.03;;;20.70;;
18793;SDS011;29610;49.022;12.114;2023-10-13T07:40:19;38.40;;;19.20;;
18793;SDS011;29610;49.022;12.114;2023-10-13T07:43:06;39.80;;;20.47;;
18793;SDS011;29610;49.022;12.114;2023-10-13T07:45:39;36.10;;;22.40;;
18793;SDS011;29610;49.022;12.114;2023-10-13T07:48:09;34.33;;;19.53;;
18793;SDS011;29610;49.022;12.114;2023-10-13T07:50:46;38.43;;;19.07;;
18793;SDS011;29610;49.022;12.114;2023-10-13T07:53:16;31.87;;;17.97;;
18793;SDS011;29610;49.022;12.114;2023-10-13T07:55:49;34.10;;;17.70;;
18793;SDS011;29610;49.022;12.114;2023-10-13T07:58:22;27.73;;;16.60;;
18793;SDS011;29610;49.022;12.114;2023-10-13T08:00:53;30.40;;;17.00;;
18793;SDS011;29610;49.022;12.114;2023-10-13T08:03:33;30.00;;;16.83;;
18793;SDS011;29610;49.022;12.114;2023-10-13T08:06:10;30.00;;;15.83;;
18793;SDS011;29610;49.022;12.114;2023-10-13T08:08:56;33.93;;;15.60;;
18793;SDS011;29610;49.022;12.114;2023-10-13T08:11:34;28.20;;;15.40;;
18793;SDS011;29610;49.022;12.114;2023-10-13T08:14:04;31.43;;;14.80;;
18793;SDS011;29610;49.022;12.114;2023-10-13T08:17:06;30.10;;;14.63;;
18793;SDS011;29610;49.022;12.114;2023-10-13T08:19:36;27.30;;;14.50;;
18793;SDS011;29610;49.022;12.114;2023-10-13T08:22:13;22.13;;;12.10;;
18793;SDS011;29610;49.022;12.114;2023-10-13T08:24:52;24.97;;;11.63;;
18793;SDS011;29610;49.022;12.114;2023-10-13T08:27:41;24.90;;;14.13;;
18793;SDS011;29610;49.022;12.114;2023-10-13T08:30:16;24.63;;;12.90;;
18793;SDS011;29610;49.022;12.114;2023-10-13T08:32:57;23.10;;;10.90;;
18793;SDS011;29610;49.022;12.114;2023-10-13T08:35:43;28.17;;;11.97;;
18793;SDS011;29610;49.022;12.114;2023-10-13T08:38:32;19.10;;;10.13;;
18793;SDS011;29610;49.022;12.114;2023-10-13T08:41:17;21.87;;;11.30;;
18793;SDS011;29610;49.022;12.114;2023-10-13T08:44:06;22.50;;;11.10;;
18793;SDS011;29610;49.022;12.114;2023-10-13T08:47:11;16.50;;;9.33;;
18793;SDS011;29610;49.022;12.114;2023-10-13T08:49:45;19.47;;;9.10;;
18793;SDS011;29610;49.022;12.114;2023-10-13T08:52:19;18.37;;;9.03;;
18793;SDS011;29610;49.022;12.114;2023-10-13T08:55:12;22.47;;;9.37;;
18793;SDS011;29610;49.022;12.114;2023-10-13T08:57:56;18.53;;;7.70;;
18793;SDS011;29610;49.022;12.114;2023-10-13T09:00:30;21.63;;;9.40;;
18793;SDS011;29610;49.022;12.114;2023-10-13T09:03:14;19.20;;;7.80;;
18793;SDS011;29610;49.022;12.114;2023-10-13T09:05:58;22.83;;;8.13;;
18793;SDS011;29610;49.022;12.114;2023-10-13T09:08:28;14.10;;;7.60;;
18793;SDS011;29610;49.022;12.114;2023-10-13T09:11:03;15.23;;;7.30;;
18793;SDS011;29610;49.022;12.114;2023-10-13T09:13:39;17.50;;;6.53;;
18793;SDS011;29610;49.022;12.114;2023-10-13T09:16:13;13.50;;;5.33;;
18793;SDS011;29610;49.022;12.114;2023-10-13T09:19:08;16.27;;;6.80;;
18793;SDS011;29610;49.022;12.114;2023-10-13T09:21:39;13.07;;;6.30;;
18793;SDS011;29610;49.022;12.114;2023-10-13T09:24:14;12.37;;;5.20;;
18793;SDS011;29610;49.022;12.114;2023-10-13T09:26:59;14.57;;;5.93;;
18793;SDS011;29610;49.022;12.114;2023-10-13T09:29:31;11.30;;;4.97;;
18793;SDS011;29610;49.022;12.114;2023-10-13T09:32:06;16.20;;;5.97;;
18793;SDS011;29610;49.022;12.114;2023-10-13T09:34:38;14.17;;;5.43;;
18793;SDS011;29610;49.022;12.114;2023-10-13T09:37:12;12.77;;;5.80;;
18793;SDS011;29610;49.022;12.114;2023-10-13T09:39:47;13.00;;;5.43;;
18793;SDS011;29610;49.022;12.114;2023-10-13T09:42:20;14.97;;;5.67;;
18793;SDS011;29610;49.022;12.114;2023-10-13T09:44:50;15.57;;;6.60;;
18793;SDS011;29610;49.022;12.114;2023-10-13T09:47:22;18.50;;;6.40;;
18793;SDS011;29610;49.022;12.114;2023-10-13T09:49:59;17.20;;;5.43;;
18793;SDS011;29610;49.022;12.114;2023-10-13T09:52:34;15.17;;;4.63;;
18793;SDS011;29610;49.022;12.114;2023-10-13T09:55:13;17.03;;;4.77;;
18793;SDS011;29610;49.022;12.114;2023-10-13T09:57:54;17.30;;;5.30;;
18793;SDS011;29610;49.022;12.114;2023-10-13T10:00:36;14.43;;;5.23;;
18793;SDS011;29610;49.022;12.114;2023-10-13T10:03:13;17.77;;;4.23;;
18793;SDS011;29610;49.022;12.114;2023-10-13T10:05:57;16.20;;;4.87;;
18793;SDS011;29610;49.022;12.114;2023-10-13T10:08:44;18.93;;;4.73;;
18793;SDS011;29610;49.022;12.114;2023-10-13T10:11:26;15.47;;;5.20;;
18793;SDS011;29610;49.022;12.114;2023-10-13T10:14:33;13.50;;;4.43;;
18793;SDS011;29610;49.022;12.114;2023-10-13T10:17:23;10.60;;;4.23;;
18793;SDS011;29610;49.022;12.114;2023-10-13T10:19:56;20.17;;;4.53;;
18793;SDS011;29610;49.022;12.114;2023-10-13T10:22:25;16.70;;;4.50;;
18793;SDS011;29610;49.022;12.114;2023-10-13T10:24:59;14.13;;;4.13;;
18793;SDS011;29610;49.022;12.114;2023-10-13T10:27:31;12.30;;;4.10;;
18793;SDS011;29610;49.022;12.114;2023-10-13T10:30:03;11.03;;;3.83;;
18793;SDS011;29610;49.022;12.114;2023-10-13T10:32:39;12.17;;;4.00;;
18793;SDS011;29610;49.022;12.114;2023-10-13T10:35:08;10.73;;;3.50;;
18793;SDS011;29610;49.022;12.114;2023-10-13T10:37:42;13.10;;;4.07;;
18793;SDS011;29610;49.022;12.114;2023-10-13T10:40:17;15.17;;;3.23;;
18793;SDS011;29610;49.022;12.114;2023-10-13T10:43:03;15.00;;;3.80;;
18793;SDS011;29610;49.022;12.114;2023-10-13T10:45:54;11.80;;;3.50;;
18793;SDS011;29610;49.022;12.114;2023-10-13T10:48:27;22.40;;;4.27;;
18793;SDS011;29610;49.022;12.114;2023-10-13T10:51:05;15.70;;;3.90;;
18793;SDS011;29610;49.022;12.114;2023-10-13T10:53:41;16.80;;;3.70;;
18793;SDS011;29610;49.022;12.114;2023-10-13T10:56:15;12.63;;;3.50;;
18793;SDS011;29610;49.022;12.114;2023-10-13T10:58:53;15.73;;;3.40;;
18793;SDS011;29610;49.022;12.114;2023-10-13T11:01:23;11.17;;;3.47;;
18793;SDS011;29610;49.022;12.114;2023-10-13T11:04:01;11.47;;;3.67;;
18793;SDS011;29610;49.022;12.114;2023-10-13T11:06:44;16.30;;;3.00;;
18793;SDS011;29610;49.022;12.114;2023-10-13T11:09:14;10.63;;;3.63;;
18793;SDS011;29610;49.022;12.114;2023-10-13T11:11:55;16.00;;;3.10;;
18793;SDS011;29610;49.022;12.114;2023-10-13T11:14:42;10.23;;;3.20;;
18793;SDS011;29610;49.022;12.114;2023-10-13T11:17:19;12.10;;;3.00;;
18793;SDS011;29610;49.022;12.114;2023-10-13T11:19:52;14.57;;;3.43;;
18793;SDS011;29610;49.022;12.114;2023-10-13T11:22:22;11.77;;;2.57;;
18793;SDS011;29610;49.022;12.114;2023-10-13T11:25:00;13.23;;;3.10;;
18793;SDS011;29610;49.022;12.114;2023-10-13T11:27:37;17.00;;;3.13;;
18793;SDS011;29610;49.022;12.114;2023-10-13T11:30:32;11.50;;;3.10;;
18793;SDS011;29610;49.022;12.114;2023-10-13T11:33:08;9.30;;;3.13;;
18793;SDS011;29610;49.022;12.114;2023-10-13T11:35:39;13.00;;;3.33;;
18793;SDS011;29610;49.022;12.114;2023-10-13T11:38:23;11.30;;;3.27;;
18793;SDS011;29610;49.022;12.114;2023-10-13T11:40:54;11.70;;;3.40;;
18793;SDS011;29610;49.022;12.114;2023-10-13T11:43:43;9.27;;;3.17;;
18793;SDS011;29610;49.022;12.114;2023-10-13T11:46:30;21.63;;;3.00;;
18793;SDS011;29610;49.022;12.114;2023-10-13T11:49:16;11.53;;;2.70;;
18793;SDS011;29610;49.022;12.114;2023-10-13T11:51:45;13.53;;;3.33;;
18793;SDS011;29610;49.022;12.114;2023-10-13T11:54:15;11.27;;;3.70;;
18793;SDS011;29610;49.022;12.114;2023-10-13T11:56:46;13.00;;;3.30;;
18793;SDS011;29610;49.022;12.114;2023-10-13T11:59:18;15.37;;;3.43;;
18793;SDS011;29610;49.022;12.114;2023-10-13T12:01:50;10.07;;;2.70;;
18793;SDS011;29610;49.022;12.114;2023-10-13T12:04:38;9.80;;;3.50;;
18793;SDS011;29610;49.022;12.114;2023-10-13T12:07:18;15.40;;;3.97;;
18793;SDS011;29610;49.022;12.114;2023-10-13T12:09:49;14.20;;;3.17;;
18793;SDS011;29610;49.022;12.114;2023-10-13T12:12:29;11.37;;;3.20;;
18793;SDS011;29610;49.022;12.114;2023-10-13T12:15:08;10.80;;;3.30;;
18793;SDS011;29610;49.022;12.114;2023-10-13T12:17:41;15.40;;;3.20;;
18793;SDS011;29610;49.022;12.114;2023-10-13T12:20:12;12.17;;;3.63;;
18793;SDS011;29610;49.022;12.114;2023-10-13T12:22:59;12.90;;;3.53;;
18793;SDS011;29610;49.022;12.114;2023-10-13T12:25:37;10.37;;;3.37;;
18793;SDS011;29610;49.022;12.114;2023-10-13T12:28:22;14.40;;;3.80;;
18793;SDS011;29610;49.022;12.114;2023-10-13T12:30:55;10.97;;;3.10;;
18793;SDS011;29610;49.022;12.114;2023-10-13T12:33:33;13.37;;;3.33;;
18793;SDS011;29610;49.022;12.114;2023-10-13T12:36:07;16.17;;;4.37;;
18793;SDS011;29610;49.022;12.114;2023-10-13T12:38:42;26.93;;;3.77;;
18793;SDS011;29610;49.022;12.114;2023-10-13T12:41:28;16.23;;;3.90;;
18793;SDS011;29610;49.022;12.114;2023-10-13T12:44:14;12.87;;;2.80;;
18793;SDS011;29610;49.022;12.114;2023-10-13T12:47:02;16.93;;;3.77;;
18793;SDS011;29610;49.022;12.114;2023-10-13T12:49:48;10.83;;;4.57;;
18793;SDS011;29610;49.022;12.114;2023-10-13T12:52:24;16.43;;;3.90;;
18793;SDS011;29610;49.022;12.114;2023-10-13T12:54:53;17.00;;;4.23;;
18793;SDS011;29610;49.022;12.114;2023-10-13T12:57:33;23.73;;;5.00;;
18793;SDS011;29610;49.022;12.114;2023-10-13T13:00:13;12.80;;;3.80;;
18793;SDS011;29610;49.022;12.114;2023-10-13T13:02:49;22.73;;;3.67;;
18793;SDS011;29610;49.022;12.114;2023-10-13T13:05:19;16.60;;;4.30;;
18793;SDS011;29610;49.022;12.114;2023-10-13T13:07:49;17.53;;;4.30;;
18793;SDS011;29610;49.022;12.114;2023-10-13T13:10:20;10.77;;;3.50;;
18793;SDS011;29610;49.022;12.114;2023-10-13T13:13:02;13.47;;;3.67;;
18793;SDS011;29610;49.022;12.114;2023-10-13T13:15:32;14.33;;;4.10;;
18793;SDS011;29610;49.022;12.114;2023-10-13T13:18:02;18.90;;;4.70;;
18793;SDS011;29610;49.022;12.114;2023-10-13T13:20:38;13.00;;;3.60;;
18793;SDS011;29610;49.022;12.114;2023-10-13T13:23:11;12.73;;;3.50;;
18793;SDS011;29610;49.022;12.114;2023-10-13T13:25:44;16.23;;;3.80;;
18793;SDS011;29610;49.022;12.114;2023-10-13T13:28:13;19.07;;;4.60;;
18793;SDS011;29610;49.022;12.114;2023-10-13T13:30:42;15.53;;;4.17;;
18793;SDS011;29610;49.022;12.114;2023-10-13T13:33:14;15.40;;;4.13;;
18793;SDS011;29610;49.022;12.114;2023-10-13T13:35:42;17.60;;;3.20;;
18793;SDS011;29610;49.022;12.114;2023-10-13T13:38:15;18.33;;;3.67;;
18793;SDS011;29610;49.022;12.114;2023-10-13T13:40:48;11.80;;;3.43;;
18793;SDS011;29610;49.022;12.114;2023-10-13T13:43:20;17.60;;;3.77;;
18793;SDS011;29610;49.022;12.114;2023-10-13T13:46:18;14.60;;;3.37;;
18793;SDS011;29610;49.022;12.114;2023-10-13T13:48:52;14.20;;;4.10;;
18793;SDS011;29610;49.022;12.114;2023-10-13T13:51:26;14.00;;;3.20;;
18793;SDS011;29610;49.022;12.114;2023-10-13T13:53:55;12.40;;;4.33;;
18793;SDS011;29610;49.022;12.114;2023-10-13T13:56:29;9.90;;;3.30;;
18793;SDS011;29610;49.022;12.114;2023-10-13T13:59:04;16.43;;;4.30;;
18793;SDS011;29610;49.022;12.114;2023-10-13T14:01:35;12.90;;;3.40;;
18793;SDS011;29610;49.022;12.114;2023-10-13T14:04:08;16.97;;;3.57;;
18793;SDS011;29610;49.022;12.114;2023-10-13T14:06:37;10.47;;;3.47;;
18793;SDS011;29610;49.022;12.114;2023-10-13T14:09:05;12.27;;;2.53;;
18793;SDS011;29610;49.022;12.114;2023-10-13T14:11:41;13.83;;;2.70;;
18793;SDS011;29610;49.022;12.114;2023-10-13T14:14:28;17.73;;;3.03;;
18793;SDS011;29610;49.022;12.114;2023-10-13T14:17:00;26.57;;;2.93;;
18793;SDS011;29610;49.022;12.114;2023-10-13T14:19:36;12.87;;;2.97;;
18793;SDS011;29610;49.022;12.114;2023-10-13T14:22:08;11.17;;;2.90;;
18793;SDS011;29610;49.022;12.114;2023-10-13T14:24:39;18.53;;;2.20;;
18793;SDS011;29610;49.022;12.114;2023-10-13T14:27:18;18.63;;;3.17;;
18793;SDS011;29610;49.022;12.114;2023-10-13T14:29:49;8.37;;;2.10;;
18793;SDS011;29610;49.022;12.114;2023-10-13T14:32:20;11.50;;;2.57;;
18793;SDS011;29610;49.022;12.114;2023-10-13T14:34:55;12.10;;;2.50;;
18793;SDS011;29610;49.022;12.114;2023-10-13T14:37:24;11.00;;;3.10;;
18793;SDS011;29610;49.022;12.114;2023-10-13T14:39:57;11.07;;;3.00;;
18793;SDS011;29610;49.022;12.114;2023-10-13T14:42:29;17.33;;;2.90;;
18793;SDS011;29610;49.022;12.114;2023-10-13T14:45:05;11.90;;;2.83;;
18793;SDS011;29610;49.022;12.114;2023-10-13T14:47:39;13.83;;;2.80;;
18793;SDS011;29610;49.022;12.114;2023-10-13T14:50:10;13.93;;;2.97;;
18793;SDS011;29610;49.022;12.114;2023-10-13T14:52:46;17.50;;;3.53;;
18793;SDS011;29610;49.022;12.114;2023-10-13T14:55:16;13.57;;;2.93;;
18793;SDS011;29610;49.022;12.114;2023-10-13T14:57:48;16.17;;;3.80;;
18793;SDS011;29610;49.022;12.114;2023-10-13T15:00:18;66.40;;;6.70;;
18793;SDS011;29610;49.022;12.114;2023-10-13T15:02:52;58.67;;;6.77;;
18793;SDS011;29610;49.022;12.114;2023-10-13T15:05:23;36.07;;;4.23;;
18793;SDS011;29610;49.022;12.114;2023-10-13T15:07:56;21.87;;;4.17;;